createdAt,value
2018-01-25T00:00:13.172Z,6.1
2018-01-25T00:01:12.434Z,6.2
2018-01-25T00:02:17.350Z,6.12
2018-01-25T00:03:12.829Z,6.07
2018-01-25T00:04:15.144Z,6.06
2018-01-25T00:05:15.205Z,6.11
2018-01-25T00:06:13.113Z,6.08
2018-01-25T00:07:12.311Z,6.12
2018-01-25T00:08:14.706Z,6.15
2018-01-25T00:09:15.204Z,6.1
2018-01-25T00:10:14.292Z,6.07
2018-01-25T00:11:14.840Z,6.17
2018-01-25T00:12:12.290Z,6.19
2018-01-25T00:13:13.487Z,6.12
2018-01-25T00:14:12.724Z,6.17
2018-01-25T00:15:12.868Z,6.1
2018-01-25T00:16:15.139Z,6.15
2018-01-25T00:17:15.733Z,6.18
2018-01-25T00:18:11.900Z,6.13
2018-01-25T00:19:15.724Z,6.09
2018-01-25T00:20:14.171Z,6.1
2018-01-25T00:21:12.642Z,6.1
2018-01-25T00:22:16.126Z,6.08
2018-01-25T00:23:13.572Z,6.1
2018-01-25T00:24:15.248Z,6.09
2018-01-25T00:25:14.218Z,6.06
2018-01-25T00:26:13.526Z,6.15
2018-01-25T00:27:12.911Z,6.08
2018-01-25T00:28:13.378Z,6.01
2018-01-25T00:29:14.365Z,6.17
2018-01-25T00:30:12.915Z,6.22
2018-01-25T00:31:15.248Z,6.11
2018-01-25T00:32:12.023Z,6.13
2018-01-25T00:33:13.118Z,6.14
2018-01-25T00:34:13.714Z,6.15
2018-01-25T00:35:14.298Z,6.11
2018-01-25T00:36:13.744Z,6.09
2018-01-25T00:37:13.632Z,6.13
2018-01-25T00:38:14.001Z,6.06
2018-01-25T00:39:11.932Z,6.16
2018-01-25T00:40:14.202Z,6.17
2018-01-25T00:41:16.132Z,6.1
2018-01-25T00:42:11.956Z,6.03
2018-01-25T00:43:12.718Z,6.04
2018-01-25T00:44:14.791Z,6.05
2018-01-25T00:45:12.444Z,6.09
2018-01-25T00:46:14.770Z,6.12
2018-01-25T00:47:12.196Z,6.06
2018-01-25T00:48:13.126Z,6.1
2018-01-25T00:49:13.555Z,6.05
2018-01-25T00:52:14.491Z,5.95
2018-01-25T00:53:14.225Z,5.94
2018-01-25T00:54:14.947Z,5.86
2018-01-25T00:55:12.516Z,5.9
2018-01-25T00:58:29.589Z,5.86
2018-01-25T00:59:13.422Z,5.82
2018-01-25T01:00:13.422Z,5.86
2018-01-25T01:01:14.939Z,5.87
2018-01-25T01:02:14.849Z,5.87
2018-01-25T01:03:12.401Z,5.83
2018-01-25T01:04:14.514Z,5.84
2018-01-25T01:05:16.179Z,5.83
2018-01-25T01:06:13.378Z,5.8
2018-01-25T01:07:14.194Z,5.82
2018-01-25T01:08:13.589Z,5.85
2018-01-25T01:09:14.262Z,5.84
2018-01-25T01:10:13.138Z,5.88
2018-01-25T01:11:12.097Z,5.86
2018-01-25T01:12:13.192Z,5.89
2018-01-25T01:13:12.866Z,5.89
2018-01-25T01:14:13.192Z,5.89
2018-01-25T01:15:11.794Z,5.85
2018-01-25T01:16:12.149Z,5.84
2018-01-25T01:17:11.822Z,5.87
2018-01-25T01:18:11.803Z,5.79
2018-01-25T01:19:11.907Z,5.85
2018-01-25T01:20:12.011Z,5.84
2018-01-25T01:21:11.881Z,5.88
2018-01-25T01:22:12.036Z,5.82
2018-01-25T01:23:12.045Z,5.85
2018-01-25T01:24:12.017Z,5.91
2018-01-25T01:25:11.913Z,5.93
2018-01-25T01:26:12.274Z,5.92
2018-01-25T01:27:12.250Z,6.01
2018-01-25T01:28:11.854Z,5.99
2018-01-25T01:29:12.071Z,5.98
2018-01-25T01:30:11.948Z,6.01
2018-01-25T01:31:11.928Z,6.03
2018-01-25T01:32:11.864Z,6.02
2018-01-25T01:33:12.079Z,6.06
2018-01-25T01:34:12.060Z,6.06
2018-01-25T01:35:12.136Z,6.08
2018-01-25T01:36:12.093Z,6.08
2018-01-25T01:37:12.010Z,6.1
2018-01-25T01:38:11.949Z,6.13
2018-01-25T01:39:12.013Z,6.12
2018-01-25T01:40:11.893Z,6.18
2018-01-25T01:41:12.468Z,6.22
2018-01-25T01:42:12.156Z,6.21
2018-01-25T01:43:11.839Z,6.23
2018-01-25T01:44:12.062Z,6.17
2018-01-25T01:45:12.017Z,6.23
2018-01-25T01:46:11.904Z,6.19
2018-01-25T01:47:12.082Z,6.25
2018-01-25T01:48:11.968Z,6.22
2018-01-25T01:49:12.008Z,6.18
2018-01-25T01:50:11.999Z,6.22
2018-01-25T01:51:11.853Z,6.18
2018-01-25T01:52:12.037Z,6.13
2018-01-25T01:53:11.842Z,6.15
2018-01-25T01:54:11.866Z,6.16
2018-01-25T01:55:12.041Z,6.15
2018-01-25T01:56:11.936Z,6.13
2018-01-25T01:57:12.060Z,6.13
2018-01-25T01:58:11.885Z,6.1
2018-01-25T01:59:11.875Z,6.1
2018-01-25T02:00:11.600Z,6.08
2018-01-25T02:01:11.255Z,6.1
2018-01-25T02:02:11.157Z,6.12
2018-01-25T02:03:10.974Z,6.06
2018-01-25T02:04:11.146Z,6.11
2018-01-25T02:05:11.066Z,6.06
2018-01-25T02:06:10.994Z,6.04
2018-01-25T02:07:10.934Z,6.01
2018-01-25T02:08:10.905Z,6.05
2018-01-25T02:09:11.105Z,5.93
2018-01-25T02:10:10.993Z,5.93
2018-01-25T02:11:10.912Z,5.96
2018-01-25T02:12:10.907Z,5.97
2018-01-25T02:13:11.005Z,5.98
2018-01-25T02:14:10.920Z,5.99
2018-01-25T02:15:10.926Z,5.94
2018-01-25T02:16:11.051Z,5.92
2018-01-25T02:17:11.141Z,5.96
2018-01-25T02:18:10.996Z,5.97
2018-01-25T02:19:11.198Z,5.93
2018-01-25T02:20:10.938Z,5.97
2018-01-25T02:21:11.130Z,5.95
2018-01-25T02:22:11.120Z,5.91
2018-01-25T02:23:10.983Z,5.91
2018-01-25T02:24:11.598Z,5.9
2018-01-25T02:25:11.202Z,5.91
2018-01-25T02:26:11.015Z,5.89
2018-01-25T02:27:11.164Z,5.94
2018-01-25T02:28:11.251Z,5.91
2018-01-25T02:29:11.178Z,5.95
2018-01-25T02:30:11.373Z,5.91
2018-01-25T02:31:11.249Z,5.95
2018-01-25T02:32:11.165Z,5.93
2018-01-25T02:33:11.168Z,5.95
2018-01-25T02:34:11.151Z,5.99
2018-01-25T02:35:11.263Z,5.93
2018-01-25T02:36:10.973Z,5.92
2018-01-25T02:37:11.300Z,5.95
2018-01-25T02:39:23.965Z,5.93
2018-01-25T02:40:11.134Z,5.93
2018-01-25T02:41:11.143Z,5.93
2018-01-25T02:42:11.362Z,5.92
2018-01-25T02:43:11.161Z,5.93
2018-01-25T02:44:11.306Z,6
2018-01-25T02:45:10.967Z,5.97
2018-01-25T02:46:11.180Z,6.02
2018-01-25T02:47:11.071Z,6
2018-01-25T02:48:11.055Z,5.98
2018-01-25T02:49:11.152Z,5.87
2018-01-25T02:50:11.035Z,5.96
2018-01-25T02:51:11.197Z,5.9
2018-01-25T02:52:11.112Z,5.97
2018-01-25T02:53:11.052Z,5.93
2018-01-25T02:54:11.168Z,5.92
2018-01-25T02:55:10.975Z,5.98
2018-01-25T02:56:11.751Z,6.06
2018-01-25T02:57:11.155Z,5.91
2018-01-25T02:58:10.961Z,5.99
2018-01-25T02:59:10.992Z,5.93
2018-01-25T03:00:11.095Z,5.99
2018-01-25T03:01:10.999Z,5.97
2018-01-25T03:02:11.152Z,6.04
2018-01-25T03:03:11.503Z,6.03
2018-01-25T03:04:11.155Z,5.98
2018-01-25T03:05:11.083Z,5.93
2018-01-25T03:06:11.341Z,5.97
2018-01-25T03:07:11.252Z,5.98
2018-01-25T03:08:11.158Z,6
2018-01-25T03:09:10.958Z,6.02
2018-01-25T03:10:10.978Z,6.01
2018-01-25T03:11:11.125Z,6.02
2018-01-25T03:12:11.170Z,5.98
2018-01-25T03:13:11.274Z,5.99
2018-01-25T03:14:11.054Z,6.02
2018-01-25T03:15:11.148Z,6.06
2018-01-25T03:16:11.220Z,6.05
2018-01-25T03:17:11.104Z,6.02
2018-01-25T03:18:11.053Z,6.08
2018-01-25T03:19:11.257Z,6.06
2018-01-25T03:20:11.073Z,6.07
2018-01-25T03:21:11.261Z,6.03
2018-01-25T03:22:11.090Z,6.09
2018-01-25T03:23:11.197Z,6.08
2018-01-25T03:24:11.203Z,6.03
2018-01-25T03:25:11.093Z,6.08
2018-01-25T03:26:11.236Z,6.08
2018-01-25T03:27:11.143Z,6.05
2018-01-25T03:28:11.080Z,6.07
2018-01-25T03:29:11.222Z,6.03
2018-01-25T03:30:11.236Z,6.01
2018-01-25T03:31:11.083Z,6.04
2018-01-25T03:32:11.217Z,6.03
2018-01-25T03:33:11.301Z,6.07
2018-01-25T03:34:11.258Z,6.05
2018-01-25T03:35:11.301Z,6.05
2018-01-25T03:36:11.327Z,6.07
2018-01-25T03:37:12.082Z,6.02
2018-01-25T03:38:11.050Z,6.08
2018-01-25T03:39:11.018Z,6.08
2018-01-25T03:40:11.315Z,6.15
2018-01-25T03:41:11.268Z,6.13
2018-01-25T03:43:13.639Z,6.16
2018-01-25T03:44:11.133Z,6.16
2018-01-25T03:45:11.258Z,6.2
2018-01-25T03:46:11.141Z,6.14
2018-01-25T03:47:11.350Z,6.19
2018-01-25T03:48:11.051Z,6.19
2018-01-25T03:50:11.158Z,6.2
2018-01-25T03:53:27.080Z,6.2
2018-01-25T03:54:11.253Z,6.16
2018-01-25T03:55:11.374Z,6.13
2018-01-25T03:56:11.116Z,6.16
2018-01-25T03:57:11.239Z,6.23
2018-01-25T03:58:11.183Z,6.17
2018-01-25T03:59:11.331Z,6.18
2018-01-25T04:00:11.418Z,6.23
2018-01-25T04:01:11.901Z,6.23
2018-01-25T04:02:11.164Z,6.23
2018-01-25T04:03:11.360Z,6.15
2018-01-25T04:04:11.321Z,6.17
2018-01-25T04:05:11.242Z,6.19
2018-01-25T04:06:11.250Z,6.23
2018-01-25T04:07:11.305Z,6.28
2018-01-25T04:08:11.198Z,6.26
2018-01-25T04:09:11.178Z,6.23
2018-01-25T04:10:11.199Z,6.19
2018-01-25T04:11:11.198Z,6.22
2018-01-25T04:12:11.364Z,6.22
2018-01-25T04:13:11.091Z,6.18
2018-01-25T04:14:11.120Z,6.22
2018-01-25T04:15:11.289Z,6.17
2018-01-25T04:16:11.425Z,6.19
2018-01-25T04:17:11.190Z,6.21
2018-01-25T04:18:11.258Z,6.17
2018-01-25T04:19:11.173Z,6.19
2018-01-25T04:20:11.178Z,6.17
2018-01-25T04:21:11.313Z,6.22
2018-01-25T04:22:11.452Z,6.09
2018-01-25T04:23:11.112Z,6.15
2018-01-25T04:24:11.159Z,6.13
2018-01-25T04:25:11.228Z,6.17
2018-01-25T04:26:12.083Z,6.18
2018-01-25T04:27:11.178Z,6.13
2018-01-25T04:28:11.304Z,6.16
2018-01-25T04:29:11.269Z,6.17
2018-01-25T04:30:12.265Z,6.12
2018-01-25T04:31:12.454Z,6.17
2018-01-25T04:32:12.531Z,6.18
2018-01-25T04:33:11.263Z,6.16
2018-01-25T04:34:11.245Z,6.1
2018-01-25T04:35:11.281Z,6.2
2018-01-25T04:36:11.129Z,6.12
2018-01-25T04:37:11.425Z,6.19
2018-01-25T04:38:11.375Z,6.07
2018-01-25T04:39:11.349Z,6.1
2018-01-25T04:40:11.151Z,6.14
2018-01-25T04:41:11.273Z,6.1
2018-01-25T04:42:11.305Z,6.1
2018-01-25T04:43:11.244Z,6.1
2018-01-25T04:44:11.148Z,6.12
2018-01-25T04:45:11.335Z,6.13
2018-01-25T04:46:11.351Z,6.14
2018-01-25T04:47:11.314Z,6.16
2018-01-25T04:48:11.401Z,6.13
2018-01-25T04:49:11.253Z,6.12
2018-01-25T04:50:11.278Z,6.12
2018-01-25T04:51:11.241Z,6.09
2018-01-25T04:52:11.248Z,6.06
2018-01-25T04:53:11.370Z,6.07
2018-01-25T04:54:11.404Z,6
2018-01-25T04:55:11.232Z,6.08
2018-01-25T04:56:11.390Z,6.09
2018-01-25T04:57:11.348Z,6.05
2018-01-25T04:58:11.299Z,6.06
2018-01-25T04:59:11.321Z,6.15
2018-01-25T05:00:11.509Z,6.12
2018-01-25T05:01:11.403Z,6.09
2018-01-25T05:02:11.164Z,6.18
2018-01-25T05:03:11.922Z,6.08
2018-01-25T05:04:11.189Z,6.1
2018-01-25T05:05:11.412Z,6.15
2018-01-25T05:06:11.443Z,6.11
2018-01-25T05:07:11.342Z,6.15
2018-01-25T05:08:11.437Z,6.16
2018-01-25T05:09:11.429Z,6.03
2018-01-25T05:10:11.206Z,6.13
2018-01-25T05:11:11.500Z,6.01
2018-01-25T05:12:11.412Z,6.12
2018-01-25T05:13:11.960Z,6.12
2018-01-25T05:14:11.318Z,5.95
2018-01-25T05:15:11.424Z,6
2018-01-25T05:16:11.206Z,6
2018-01-25T05:17:11.437Z,5.95
2018-01-25T05:18:11.217Z,5.99
2018-01-25T05:19:11.245Z,6.02
2018-01-25T05:20:11.276Z,6.13
2018-01-25T05:21:11.599Z,6.08
2018-01-25T05:22:11.373Z,6.07
2018-01-25T05:23:11.404Z,6.04
2018-01-25T05:24:11.111Z,6.11
2018-01-25T05:25:11.409Z,5.98
2018-01-25T05:26:11.092Z,6.02
2018-01-25T05:27:11.361Z,6.01
2018-01-25T05:28:11.325Z,6.06
2018-01-25T05:29:11.302Z,6.03
2018-01-25T05:30:11.359Z,6.06
2018-01-25T05:31:11.290Z,6.02
2018-01-25T05:32:11.546Z,5.96
2018-01-25T05:33:11.517Z,5.92
2018-01-25T05:34:11.591Z,5.96
2018-01-25T05:35:11.445Z,6
2018-01-25T05:36:11.369Z,5.9
2018-01-25T05:37:11.508Z,5.95
2018-01-25T05:38:11.369Z,6.02
2018-01-25T05:39:11.508Z,5.97
2018-01-25T05:40:11.314Z,6.05
2018-01-25T05:41:11.406Z,6.03
2018-01-25T05:42:11.440Z,6.01
2018-01-25T05:43:11.253Z,5.97
2018-01-25T05:44:11.295Z,6.06
2018-01-25T05:45:11.210Z,5.93
2018-01-25T05:46:11.354Z,5.97
2018-01-25T05:47:11.257Z,5.98
2018-01-25T05:48:11.208Z,6.02
2018-01-25T05:49:11.305Z,6.04
2018-01-25T05:50:11.260Z,6.02
2018-01-25T05:51:11.243Z,6.11
2018-01-25T05:52:11.243Z,5.93
2018-01-25T05:53:11.196Z,5.96
2018-01-25T05:54:11.409Z,5.99
2018-01-25T05:55:11.191Z,5.94
2018-01-25T05:56:11.180Z,5.93
2018-01-25T05:57:11.338Z,5.95
2018-01-25T05:58:11.217Z,5.9
2018-01-25T05:59:11.493Z,5.98
2018-01-25T06:00:11.474Z,5.97
2018-01-25T06:01:11.307Z,5.87
2018-01-25T06:02:11.722Z,5.95
2018-01-25T06:03:11.459Z,5.99
2018-01-25T06:04:11.334Z,5.91
2018-01-25T06:05:11.675Z,5.82
2018-01-25T06:06:11.753Z,5.95
2018-01-25T06:07:11.317Z,5.97
2018-01-25T06:08:11.543Z,5.89
2018-01-25T06:09:11.446Z,5.85
2018-01-25T06:10:11.327Z,5.87
2018-01-25T06:11:11.430Z,5.81
2018-01-25T06:12:11.393Z,5.83
2018-01-25T06:13:11.317Z,5.91
2018-01-25T06:14:11.508Z,5.86
2018-01-25T06:15:11.436Z,5.93
2018-01-25T06:16:11.471Z,5.85
2018-01-25T06:17:11.503Z,5.89
2018-01-25T06:18:11.667Z,5.9
2018-01-25T06:19:11.464Z,5.91
2018-01-25T06:20:11.500Z,5.98
2018-01-25T06:21:11.514Z,5.97
2018-01-25T06:22:11.552Z,5.88
2018-01-25T06:23:11.958Z,5.97
2018-01-25T06:24:11.288Z,5.95
2018-01-25T06:25:11.459Z,5.94
2018-01-25T06:26:11.423Z,6
2018-01-25T06:27:11.431Z,6.02
2018-01-25T06:28:11.347Z,6.05
2018-01-25T06:29:11.313Z,5.99
2018-01-25T06:30:11.566Z,5.92
2018-01-25T06:31:11.394Z,5.95
2018-01-25T06:32:11.378Z,5.98
2018-01-25T06:33:11.726Z,6.07
2018-01-25T06:34:11.592Z,6.03
2018-01-25T06:35:11.451Z,6.05
2018-01-25T06:36:11.530Z,6.04
2018-01-25T06:37:11.180Z,6.03
2018-01-25T06:38:11.531Z,6.07
2018-01-25T06:39:11.463Z,6.02
2018-01-25T06:40:11.334Z,6.09
2018-01-25T06:41:11.304Z,6.05
2018-01-25T06:42:11.286Z,6.13
2018-01-25T06:43:11.489Z,6.07
2018-01-25T06:44:11.389Z,6.09
2018-01-25T06:45:11.332Z,6.12
2018-01-25T06:46:11.390Z,6.12
2018-01-25T06:47:11.181Z,6.17
2018-01-25T06:48:11.252Z,6.16
2018-01-25T06:49:11.598Z,6.13
2018-01-25T06:50:11.289Z,6.09
2018-01-25T06:51:11.272Z,6.14
2018-01-25T06:52:11.396Z,6.19
2018-01-25T06:53:11.429Z,6.16
2018-01-25T06:54:11.269Z,6.15
2018-01-25T06:55:11.293Z,6.21
2018-01-25T06:56:11.206Z,6.16
2018-01-25T06:57:11.403Z,6.18
2018-01-25T06:58:11.288Z,6.08
2018-01-25T06:59:11.360Z,6.13
2018-01-25T07:00:11.394Z,6.13
2018-01-25T07:01:11.568Z,6.17
2018-01-25T07:02:11.335Z,6.19
2018-01-25T07:03:11.479Z,6.28
2018-01-25T07:04:11.473Z,6.25
2018-01-25T07:05:11.465Z,6.28
2018-01-25T07:06:11.442Z,6.19
2018-01-25T07:07:11.387Z,6.24
2018-01-25T07:08:11.367Z,6.22
2018-01-25T07:09:11.377Z,6.19
2018-01-25T07:10:11.412Z,6.21
2018-01-25T07:11:11.658Z,6.25
2018-01-25T07:12:11.536Z,6.27
2018-01-25T07:13:11.328Z,6.26
2018-01-25T07:14:11.361Z,6.34
2018-01-25T07:15:11.407Z,6.33
2018-01-25T07:16:11.454Z,6.32
2018-01-25T07:17:11.350Z,6.31
2018-01-25T07:18:11.499Z,6.16
2018-01-25T07:19:11.457Z,6.22
2018-01-25T07:20:11.407Z,6.25
2018-01-25T07:21:11.328Z,6.32
2018-01-25T07:22:11.594Z,6.32
2018-01-25T07:23:11.552Z,6.36
2018-01-25T07:24:11.303Z,6.35
2018-01-25T07:25:11.425Z,6.44
2018-01-25T07:26:11.688Z,6.34
2018-01-25T07:27:11.496Z,6.38
2018-01-25T07:28:11.646Z,6.41
2018-01-25T07:29:11.547Z,6.43
2018-01-25T07:30:11.489Z,6.42
2018-01-25T07:31:11.324Z,6.42
2018-01-25T07:32:11.433Z,6.43
2018-01-25T07:33:11.593Z,6.39
2018-01-25T07:34:11.462Z,6.39
2018-01-25T07:35:12.019Z,6.39
2018-01-25T07:36:11.479Z,6.26
2018-01-25T07:37:11.477Z,6.31
2018-01-25T07:38:11.528Z,6.34
2018-01-25T07:39:11.469Z,6.31
2018-01-25T07:40:11.751Z,6.37
2018-01-25T07:41:11.583Z,6.32
2018-01-25T07:42:11.590Z,6.33
2018-01-25T07:43:11.625Z,6.3
2018-01-25T07:44:11.490Z,6.31
2018-01-25T07:45:11.775Z,6.32
2018-01-25T07:46:11.584Z,6.29
2018-01-25T07:47:11.462Z,6.31
2018-01-25T07:48:11.456Z,6.35
2018-01-25T07:49:11.462Z,6.32
2018-01-25T07:50:11.468Z,6.28
2018-01-25T07:51:11.662Z,6.32
2018-01-25T07:52:11.430Z,6.37
2018-01-25T07:53:11.464Z,6.35
2018-01-25T07:54:11.564Z,6.29
2018-01-25T07:55:11.580Z,6.38
2018-01-25T07:56:11.630Z,6.34
2018-01-25T07:57:11.386Z,6.36
2018-01-25T07:58:11.394Z,6.31
2018-01-25T07:59:12.016Z,6.34
2018-01-25T08:00:11.461Z,6.28
2018-01-25T08:01:11.748Z,6.36
2018-01-25T08:02:11.315Z,6.32
2018-01-25T08:03:11.855Z,6.4
2018-01-25T08:04:11.987Z,6.37
2018-01-25T08:05:11.678Z,6.29
2018-01-25T08:06:12.513Z,6.37
2018-01-25T08:07:11.687Z,6.43
2018-01-25T08:08:11.828Z,6.35
2018-01-25T08:09:11.845Z,6.4
2018-01-25T08:10:11.690Z,6.37
2018-01-25T08:11:11.769Z,6.39
2018-01-25T08:12:11.733Z,6.38
2018-01-25T08:13:12.065Z,6.54
2018-01-25T08:14:11.632Z,6.69
2018-01-25T08:15:11.699Z,6.68
2018-01-25T08:16:11.690Z,6.54
2018-01-25T08:17:11.729Z,6.52
2018-01-25T08:18:11.839Z,6.53
2018-01-25T08:19:11.713Z,6.5
2018-01-25T08:20:11.754Z,6.47
2018-01-25T08:21:11.875Z,6.45
2018-01-25T08:22:11.858Z,6.47
2018-01-25T08:23:11.927Z,6.55
2018-01-25T08:24:11.776Z,6.47
2018-01-25T08:25:11.915Z,6.49
2018-01-25T08:26:11.746Z,6.53
2018-01-25T08:27:11.732Z,6.5
2018-01-25T08:28:11.884Z,6.49
2018-01-25T08:29:11.863Z,6.58
2018-01-25T08:30:11.928Z,6.59
2018-01-25T08:31:11.624Z,6.55
2018-01-25T08:32:11.736Z,6.52
2018-01-25T08:33:11.751Z,6.52
2018-01-25T08:34:11.706Z,6.59
2018-01-25T08:35:11.650Z,6.66
2018-01-25T08:36:11.971Z,6.64
2018-01-25T08:37:11.741Z,6.54
2018-01-25T08:38:11.819Z,6.53
2018-01-25T08:39:12.351Z,6.56
2018-01-25T08:40:11.793Z,6.44
2018-01-25T08:41:11.851Z,6.49
2018-01-25T08:42:11.859Z,6.44
2018-01-25T08:43:11.979Z,6.42
2018-01-25T08:44:11.970Z,6.42
2018-01-25T08:45:14.315Z,6.38
2018-01-25T08:46:11.886Z,6.37
2018-01-25T08:47:11.884Z,6.36
2018-01-25T08:48:11.897Z,6.27
2018-01-25T08:49:11.839Z,6.29
2018-01-25T08:50:11.816Z,6.23
2018-01-25T08:51:11.725Z,6.12
2018-01-25T08:52:11.835Z,6.21
2018-01-25T08:53:11.876Z,6.24
2018-01-25T08:54:11.911Z,6.24
2018-01-25T08:55:11.739Z,6.24
2018-01-25T08:56:11.794Z,6.29
2018-01-25T08:57:11.609Z,6.31
2018-01-25T08:58:12.277Z,6.33
2018-01-25T08:59:11.818Z,6.26
2018-01-25T09:00:11.843Z,6.24
2018-01-25T09:01:11.773Z,6.14
2018-01-25T09:02:11.643Z,6.22
2018-01-25T09:03:11.917Z,6.25
2018-01-25T09:04:11.944Z,6.2
2018-01-25T09:05:12.001Z,6.16
2018-01-25T09:06:11.924Z,6.25
2018-01-25T09:07:11.702Z,6.19
2018-01-25T09:08:11.914Z,6.18
2018-01-25T09:09:11.903Z,6.26
2018-01-25T09:10:12.165Z,6.09
2018-01-25T09:11:11.674Z,6.19
2018-01-25T09:12:11.728Z,6.11
2018-01-25T09:13:12.090Z,6.19
2018-01-25T09:14:11.913Z,6.09
2018-01-25T09:15:11.995Z,6.17
2018-01-25T09:16:11.869Z,6.17
2018-01-25T09:17:11.933Z,6.14
2018-01-25T09:18:11.830Z,6.19
2018-01-25T09:19:11.920Z,6.13
2018-01-25T09:20:11.824Z,6.14
2018-01-25T09:21:12.058Z,6.23
2018-01-25T09:22:12.077Z,6.19
2018-01-25T09:23:11.987Z,6.17
2018-01-25T09:24:11.890Z,5.98
2018-01-25T09:25:11.940Z,6.01
2018-01-25T09:26:11.957Z,6.02
2018-01-25T09:27:12.120Z,6.07
2018-01-25T09:28:11.981Z,6.06
2018-01-25T09:29:11.852Z,6.11
2018-01-25T09:30:11.833Z,6.17
2018-01-25T09:31:11.822Z,6.02
2018-01-25T09:32:12.004Z,6
2018-01-25T09:33:11.892Z,5.96
2018-01-25T09:34:11.114Z,6
2018-01-25T09:35:10.857Z,5.96
2018-01-25T09:36:10.916Z,5.94
2018-01-25T09:37:10.702Z,5.97
2018-01-25T09:38:11.049Z,6.04
2018-01-25T09:39:11.000Z,5.96
2018-01-25T09:40:11.008Z,5.88
2018-01-25T09:41:10.911Z,5.95
2018-01-25T09:42:10.872Z,5.96
2018-01-25T09:43:10.750Z,6.05
2018-01-25T09:44:11.022Z,6.08
2018-01-25T09:45:10.985Z,5.94
2018-01-25T09:46:10.958Z,5.98
2018-01-25T09:47:11.023Z,6.01
2018-01-25T09:48:10.971Z,5.98
2018-01-25T09:49:10.899Z,5.92
2018-01-25T09:50:10.906Z,6
2018-01-25T09:51:10.967Z,6.04
2018-01-25T09:52:11.110Z,6.08
2018-01-25T09:53:10.953Z,6
2018-01-25T09:54:10.905Z,6.09
2018-01-25T09:55:11.078Z,6.1
2018-01-25T09:56:11.173Z,6.12
2018-01-25T09:57:11.035Z,6.03
2018-01-25T09:58:10.938Z,6.08
2018-01-25T09:59:11.072Z,6.08
2018-01-25T10:00:11.106Z,6.15
2018-01-25T10:01:11.038Z,6.14
2018-01-25T10:02:10.808Z,6
2018-01-25T10:03:11.122Z,6.06
2018-01-25T10:04:10.992Z,6.09
2018-01-25T10:05:11.079Z,6.06
2018-01-25T10:06:10.896Z,6.12
2018-01-25T10:07:11.187Z,6.11
2018-01-25T10:08:10.969Z,6.14
2018-01-25T10:09:10.935Z,6.17
2018-01-25T10:10:10.954Z,6.06
2018-01-25T10:11:10.935Z,6.08
2018-01-25T10:12:11.165Z,6.14
2018-01-25T10:13:11.065Z,6.11
2018-01-25T10:14:10.946Z,6.12
2018-01-25T10:15:10.911Z,6.23
2018-01-25T10:16:10.907Z,6.27
2018-01-25T10:17:11.005Z,6.34
2018-01-25T10:18:10.997Z,6.41
2018-01-25T10:19:10.965Z,6.51
2018-01-25T10:20:11.054Z,6.48
2018-01-25T10:21:10.974Z,6.47
2018-01-25T10:22:11.077Z,6.49
2018-01-25T10:23:10.988Z,6.56
2018-01-25T10:24:11.306Z,6.61
2018-01-25T10:25:11.225Z,6.7
2018-01-25T10:26:11.068Z,6.75
2018-01-25T10:27:10.996Z,6.81
2018-01-25T10:28:11.065Z,6.86
2018-01-25T10:29:11.301Z,6.9
2018-01-25T10:30:11.029Z,6.94
2018-01-25T10:31:11.091Z,7.01
2018-01-25T10:32:10.990Z,7.04
2018-01-25T10:33:11.026Z,7.05
2018-01-25T10:34:11.109Z,7.08
2018-01-25T10:35:11.244Z,7.07
2018-01-25T10:36:11.014Z,7.12
2018-01-25T10:37:11.102Z,7.08
2018-01-25T10:38:11.033Z,7.15
2018-01-25T10:39:10.923Z,7.06
2018-01-25T10:40:11.034Z,7.09
2018-01-25T10:41:11.911Z,7.14
2018-01-25T10:42:11.202Z,7.09
2018-01-25T10:43:11.306Z,7.13
2018-01-25T10:44:11.124Z,7.11
2018-01-25T10:45:11.695Z,7.07
2018-01-25T10:46:11.317Z,7.05
2018-01-25T10:47:11.308Z,7.12
2018-01-25T10:48:11.060Z,7.16
2018-01-25T10:49:11.616Z,7.13
2018-01-25T10:50:11.272Z,7.19
2018-01-25T10:51:11.183Z,7.28
2018-01-25T10:52:10.996Z,7.35
2018-01-25T10:53:10.991Z,7.21
2018-01-25T10:54:12.316Z,7.27
2018-01-25T10:55:12.516Z,7.18
2018-01-25T10:56:11.762Z,7.21
2018-01-25T10:57:11.931Z,7.22
2018-01-25T10:58:12.472Z,7.24
2018-01-25T10:59:12.714Z,7.24
2018-01-25T11:00:15.642Z,7.23
2018-01-25T11:01:13.313Z,7.12
2018-01-25T11:02:11.219Z,7.18
2018-01-25T11:03:12.506Z,7.23
2018-01-25T11:04:12.193Z,7.2
2018-01-25T11:05:12.024Z,7.19
2018-01-25T11:06:13.764Z,7.24
2018-01-25T11:07:11.918Z,7.24
2018-01-25T11:08:14.371Z,7.22
2018-01-25T11:09:14.406Z,7.24
2018-01-25T11:10:13.403Z,7.27
2018-01-25T11:11:11.847Z,7.28
2018-01-25T11:12:12.099Z,7.27
2018-01-25T11:13:11.897Z,7.25
2018-01-25T11:14:12.179Z,7.28
2018-01-25T11:15:11.848Z,7.31
2018-01-25T11:16:12.952Z,7.26
2018-01-25T11:17:14.125Z,7.25
2018-01-25T11:18:15.043Z,7.25
2018-01-25T11:19:13.465Z,7.23
2018-01-25T11:20:14.864Z,7.24
2018-01-25T11:21:17.682Z,7.2
2018-01-25T11:22:13.445Z,7.24
2018-01-25T11:23:12.436Z,7.19
2018-01-25T11:24:11.317Z,7.23
2018-01-25T11:25:11.449Z,7.26
2018-01-25T11:26:12.374Z,7.13
2018-01-25T11:27:16.008Z,7.17
2018-01-25T11:28:14.798Z,7.1
2018-01-25T11:29:14.121Z,7.13
2018-01-25T11:30:12.681Z,7.1
2018-01-25T11:31:13.349Z,7.01
2018-01-25T11:32:15.419Z,6.96
2018-01-25T11:33:12.897Z,7.01
2018-01-25T11:34:12.192Z,7.07
2018-01-25T11:35:12.201Z,7.05
2018-01-25T11:36:12.209Z,7.05
2018-01-25T11:37:11.300Z,7.05
2018-01-25T11:38:12.181Z,7.02
2018-01-25T11:39:12.056Z,6.93
2018-01-25T11:40:11.476Z,6.96
2018-01-25T11:41:11.512Z,7.01
2018-01-25T11:42:11.441Z,6.93
2018-01-25T11:43:11.340Z,6.95
2018-01-25T11:44:11.286Z,6.89
2018-01-25T11:45:11.438Z,6.93
2018-01-25T11:46:11.413Z,6.84
2018-01-25T11:47:11.263Z,6.93
2018-01-25T11:48:11.485Z,6.79
2018-01-25T11:49:11.379Z,6.75
2018-01-25T11:50:11.212Z,6.73
2018-01-25T11:51:11.510Z,6.74
2018-01-25T11:52:11.328Z,6.71
2018-01-25T11:53:11.348Z,6.72
2018-01-25T11:54:11.304Z,6.72
2018-01-25T11:55:11.388Z,6.69
2018-01-25T11:56:11.522Z,6.71
2018-01-25T11:57:11.407Z,6.72
2018-01-25T11:58:11.542Z,6.81
2018-01-25T11:59:11.343Z,6.82
2018-01-25T12:00:11.319Z,6.87
2018-01-25T12:01:11.259Z,6.79
2018-01-25T12:02:11.472Z,6.86
2018-01-25T12:03:11.516Z,6.82
2018-01-25T12:04:11.682Z,6.68
2018-01-25T12:05:11.597Z,6.76
2018-01-25T12:06:11.631Z,6.78
2018-01-25T12:07:11.793Z,6.81
2018-01-25T12:08:11.788Z,6.82
2018-01-25T12:09:11.781Z,6.96
2018-01-25T12:10:11.567Z,6.93
2018-01-25T12:11:11.656Z,6.94
2018-01-25T12:12:11.569Z,6.8
2018-01-25T12:13:11.587Z,6.83
2018-01-25T12:14:11.817Z,6.9
2018-01-25T12:15:11.645Z,7.01
2018-01-25T12:16:11.917Z,6.87
2018-01-25T12:17:11.793Z,6.89
2018-01-25T12:18:11.674Z,6.86
2018-01-25T12:19:11.722Z,6.8
2018-01-25T12:20:11.841Z,6.91
2018-01-25T12:21:11.860Z,6.58
2018-01-25T12:22:11.600Z,6.68
2018-01-25T12:23:11.607Z,6.67
2018-01-25T12:24:11.727Z,6.72
2018-01-25T12:25:11.722Z,6.6
2018-01-25T12:26:11.843Z,6.65
2018-01-25T12:27:11.754Z,6.69
2018-01-25T12:28:11.682Z,6.56
2018-01-25T12:29:11.632Z,6.72
2018-01-25T12:30:11.530Z,6.85
2018-01-25T12:31:11.764Z,6.71
2018-01-25T12:32:11.689Z,6.7
2018-01-25T12:33:11.740Z,6.6
2018-01-25T12:34:12.706Z,6.7
2018-01-25T12:35:11.089Z,6.74
2018-01-25T12:36:11.096Z,6.64
2018-01-25T12:37:10.911Z,6.53
2018-01-25T12:38:10.856Z,6.7
2018-01-25T12:39:10.884Z,6.62
2018-01-25T12:40:11.005Z,6.52
2018-01-25T12:41:11.056Z,6.67
2018-01-25T12:42:10.768Z,6.75
2018-01-25T12:43:10.926Z,6.58
2018-01-25T12:44:11.044Z,6.51
2018-01-25T12:45:11.091Z,6.51
2018-01-25T12:46:11.010Z,6.61
2018-01-25T12:47:10.877Z,6.58
2018-01-25T12:48:11.053Z,6.75
2018-01-25T12:49:11.011Z,6.76
2018-01-25T12:50:10.776Z,6.73
2018-01-25T12:51:10.982Z,6.81
2018-01-25T12:52:10.927Z,6.69
2018-01-25T12:53:10.851Z,6.84
2018-01-25T12:54:11.111Z,6.81
2018-01-25T12:55:11.019Z,6.76
2018-01-25T12:56:11.157Z,6.75
2018-01-25T12:57:10.922Z,6.73
2018-01-25T12:58:10.903Z,6.74
2018-01-25T12:59:10.945Z,6.78
2018-01-25T13:00:11.093Z,6.7
2018-01-25T13:01:10.831Z,6.66
2018-01-25T13:02:11.021Z,6.61
2018-01-25T13:03:10.797Z,6.7
2018-01-25T13:04:10.892Z,6.67
2018-01-25T13:05:11.132Z,6.57
2018-01-25T13:06:10.870Z,6.59
2018-01-25T13:07:10.863Z,6.46
2018-01-25T13:08:10.970Z,6.58
2018-01-25T13:09:11.057Z,6.54
2018-01-25T13:10:11.082Z,6.68
2018-01-25T13:11:10.960Z,6.7
2018-01-25T13:12:10.849Z,6.72
2018-01-25T13:13:10.877Z,6.68
2018-01-25T13:14:10.877Z,6.7
2018-01-25T13:15:11.090Z,6.7
2018-01-25T13:16:11.006Z,6.61
2018-01-25T13:17:10.882Z,6.39
2018-01-25T13:18:10.980Z,6.57
2018-01-25T13:19:11.158Z,6.61
2018-01-25T13:20:11.040Z,6.52
2018-01-25T13:21:11.071Z,6.54
2018-01-25T13:22:11.153Z,6.51
2018-01-25T13:23:11.354Z,6.69
2018-01-25T13:24:11.217Z,6.65
2018-01-25T13:25:11.062Z,6.52
2018-01-25T13:26:10.950Z,6.59
2018-01-25T13:27:11.136Z,6.68
2018-01-25T13:28:11.158Z,6.33
2018-01-25T13:29:11.094Z,6.56
2018-01-25T13:30:11.159Z,6.51